Time;durP1;ratioP1;P1;durP2;ratioP2;P2;SDS_P1;SDS_P2;PMS_P1;PMS_P2;Temp;Humidity;BMP_temperature;BMP_pressure;BME280_temperature;BME280_humidity;BME280_pressure;Samples;Min_cycle;Max_cycle;Signal;HPM_P1;HPM_P2
2020/01/07 00:01:22;;;;;;;11;6.8;;;;;;;-0.12;77.41895;945.5244;;;;
2020/01/07 00:03:47;;;;;;;11;6.4;;;;;;;-0.09;77.19141;945.5051;;;;
2020/01/07 00:06:12;;;;;;;10.5;6.3;;;;;;;-0.05;77.02051;945.5148;;;;
2020/01/07 00:08:38;;;;;;;11.4;7.1;;;;;;;0;76.71777;945.4885;;;;
2020/01/07 00:11:03;;;;;;;12.4;7.3;;;;;;;-0.16;77.68945;945.5206;;;;
2020/01/07 00:13:29;;;;;;;13.5;7.9;;;;;;;-0.13;77.61816;945.5709;;;;
2020/01/07 00:15:55;;;;;;;14.4;8.2;;;;;;;-0.26;78.04004;945.4691;;;;
2020/01/07 00:18:20;;;;;;;13.9;8.5;;;;;;;-0.31;78.00879;945.5059;;;;
2020/01/07 00:20:45;;;;;;;15.8;9.1;;;;;;;-0.4;78.16895;945.517;;;;
2020/01/07 00:23:10;;;;;;;13.8;8.6;;;;;;;-0.5;78.57324;945.4531;;;;
2020/01/07 00:25:36;;;;;;;16.9;9;;;;;;;-0.53;78.71289;945.4919;;;;
2020/01/07 00:28:01;;;;;;;14.2;7.8;;;;;;;-0.51;78.92773;945.49;;;;
2020/01/07 00:30:26;;;;;;;11.6;7.3;;;;;;;-0.52;79.00391;945.5845;;;;
2020/01/07 00:32:52;;;;;;;13;7.6;;;;;;;-0.55;79.03223;945.5776;;;;
2020/01/07 00:35:18;;;;;;;14;8.4;;;;;;;-0.64;79.40234;945.5556;;;;
2020/01/07 00:37:43;;;;;;;12.4;7.2;;;;;;;-0.67;79.78711;945.4352;;;;
2020/01/07 00:40:09;;;;;;;13.2;7.6;;;;;;;-0.66;79.87793;945.4348;;;;
2020/01/07 00:42:34;;;;;;;18.1;9.2;;;;;;;-0.62;79.68555;945.5144;;;;
2020/01/07 00:45:00;;;;;;;19.9;10.1;;;;;;;-0.49;79.2207;945.4872;;;;
2020/01/07 00:47:25;;;;;;;14.4;7.3;;;;;;;-0.41;79.03516;945.3055;;;;
2020/01/07 00:49:51;;;;;;;16;8.6;;;;;;;-0.26;78.04004;945.3209;;;;
2020/01/07 00:52:16;;;;;;;16;9.1;;;;;;;-0.31;78.12012;945.3933;;;;
2020/01/07 00:54:41;;;;;;;14;7.4;;;;;;;-0.24;77.84277;945.3939;;;;
2020/01/07 00:57:07;;;;;;;12.4;7.1;;;;;;;-0.47;78.46875;945.4497;;;;
2020/01/07 00:59:32;;;;;;;12.9;6.5;;;;;;;-0.47;78.56738;945.4431;;;;
2020/01/07 01:02:03;;;;;;;10.2;6.8;;;;;;;-0.61;78.73242;945.4431;;;;
2020/01/07 01:04:22;;;;;;;12.2;7;;;;;;;-0.66;78.93359;945.3967;;;;
2020/01/07 01:06:48;;;;;;;13;7.7;;;;;;;-0.68;79.26465;945.447;;;;
2020/01/07 01:09:13;;;;;;;9.9;5.5;;;;;;;-0.74;79.77539;945.537;;;;
2020/01/07 01:11:38;;;;;;;9.7;5.6;;;;;;;-0.72;79.80078;945.4758;;;;
2020/01/07 01:14:04;;;;;;;6.7;4.4;;;;;;;-0.69;80.07227;945.4705;;;;
2020/01/07 01:16:29;;;;;;;8.8;4.6;;;;;;;-0.66;80.01074;945.4495;;;;
2020/01/07 01:18:54;;;;;;;8.8;4.7;;;;;;;-0.55;79.52148;945.4494;;;;
2020/01/07 01:21:19;;;;;;;10.3;6.2;;;;;;;-0.37;78.66406;945.3304;;;;
2020/01/07 01:23:44;;;;;;;14;7.9;;;;;;;-0.35;78.40137;945.2484;;;;
2020/01/07 01:26:10;;;;;;;13.2;7.9;;;;;;;-0.29;78.09961;945.4061;;;;
2020/01/07 01:28:36;;;;;;;11.4;6.9;;;;;;;-0.23;77.64453;945.361;;;;
2020/01/07 01:31:01;;;;;;;10.7;7;;;;;;;-0.31;77.68457;945.3945;;;;
2020/01/07 01:34:06;;;;;;;11.3;6.5;;;;;;;-0.54;78.41992;945.4403;;;;
2020/01/07 01:36:31;;;;;;;10.7;6.4;;;;;;;-0.59;78.72363;945.4578;;;;
2020/01/07 01:38:56;;;;;;;6.4;4.1;;;;;;;-0.78;79.5332;945.4882;;;;
2020/01/07 01:41:22;;;;;;;8;4.7;;;;;;;-0.86;79.98633;945.4127;;;;
2020/01/07 01:43:47;;;;;;;6.2;3.8;;;;;;;-0.82;80.1582;945.4347;;;;
2020/01/07 01:46:13;;;;;;;7.7;4.3;;;;;;;-0.74;80.20898;945.4417;;;;
2020/01/07 01:48:38;;;;;;;7.6;4.6;;;;;;;-0.74;80.40918;945.3519;;;;
2020/01/07 01:51:03;;;;;;;7.9;4;;;;;;;-0.62;79.83984;945.3427;;;;
2020/01/07 01:53:28;;;;;;;6.4;3.5;;;;;;;-0.44;79.04102;945.4372;;;;
2020/01/07 01:55:53;;;;;;;7.7;4;;;;;;;-0.26;78.16211;945.4221;;;;
2020/01/07 01:58:18;;;;;;;7.4;4;;;;;;;-0.31;78.1748;945.392;;;;
2020/01/07 02:00:44;;;;;;;8.3;4.3;;;;;;;-0.28;77.96973;945.4631;;;;
2020/01/07 02:03:09;;;;;;;6.8;4.3;;;;;;;-0.29;77.53223;945.4484;;;;
2020/01/07 02:05:34;;;;;;;12.1;5.5;;;;;;;-0.46;78.00293;945.4612;;;;
2020/01/07 02:08:00;;;;;;;16.2;8;;;;;;;-0.49;78.2207;945.4469;;;;
2020/01/07 02:10:25;;;;;;;21.4;9.2;;;;;;;-0.65;78.90234;945.4783;;;;
2020/01/07 02:12:50;;;;;;;20.6;9;;;;;;;-0.72;79.63184;945.4608;;;;
2020/01/07 02:15:16;;;;;;;12.7;5.6;;;;;;;-0.72;79.79883;945.5192;;;;
2020/01/07 02:17:41;;;;;;;9.1;4.5;;;;;;;-0.73;79.6416;945.503;;;;
2020/01/07 02:20:06;;;;;;;6.2;3.6;;;;;;;-0.84;80.25488;945.5695;;;;
2020/01/07 02:22:31;;;;;;;4.2;3;;;;;;;-0.9;80.71094;945.5143;;;;
2020/01/07 02:24:56;;;;;;;5.5;2.9;;;;;;;-0.83;80.6582;945.5059;;;;
2020/01/07 02:27:22;;;;;;;4.5;2.4;;;;;;;-0.71;80.49316;945.5571;;;;
2020/01/07 02:29:47;;;;;;;3.4;2.2;;;;;;;-0.6;79.87891;945.53;;;;
2020/01/07 02:32:12;;;;;;;4.1;2.3;;;;;;;-0.5;79.07422;945.5106;;;;
2020/01/07 02:34:38;;;;;;;3.6;2.4;;;;;;;-0.56;78.85059;945.5406;;;;
2020/01/07 02:37:03;;;;;;;4.1;2.4;;;;;;;-0.53;78.7998;945.4321;;;;
2020/01/07 02:39:28;;;;;;;5.2;2.7;;;;;;;-0.54;78.55566;945.3695;;;;
2020/01/07 02:41:54;;;;;;;3.2;2.2;;;;;;;-0.39;78.18164;945.3154;;;;
2020/01/07 02:44:19;;;;;;;4.5;2.7;;;;;;;-0.32;77.72754;945.2037;;;;
2020/01/07 02:46:44;;;;;;;5.4;3.1;;;;;;;-0.42;78.11035;945.2241;;;;
2020/01/07 02:49:10;;;;;;;3.6;2.6;;;;;;;-0.49;78.32031;945.2921;;;;
2020/01/07 02:51:35;;;;;;;3.3;2.2;;;;;;;-0.54;78.79883;945.165;;;;
2020/01/07 02:54:00;;;;;;;3.8;2.5;;;;;;;-0.4;78.4707;945.2147;;;;
2020/01/07 02:56:26;;;;;;;4.9;2.8;;;;;;;-0.4;78.31348;945.132;;;;
2020/01/07 02:58:51;;;;;;;5;2.5;;;;;;;-0.44;78.31641;945.0708;;;;
2020/01/07 03:01:16;;;;;;;3.2;2.1;;;;;;;-0.49;78.53223;945.1199;;;;
2020/01/07 03:03:41;;;;;;;2.7;1.8;;;;;;;-0.45;78.59473;945.1627;;;;
2020/01/07 03:06:06;;;;;;;3.9;2.2;;;;;;;-0.46;78.80273;945.2263;;;;
2020/01/07 03:08:32;;;;;;;3.3;2;;;;;;;-0.47;78.63574;945.1775;;;;
2020/01/07 03:10:57;;;;;;;3;2.1;;;;;;;-0.43;78.3418;945.3401;;;;
2020/01/07 03:13:22;;;;;;;3.5;2.4;;;;;;;-0.49;78.24121;945.4138;;;;
2020/01/07 03:15:47;;;;;;;3.8;2.3;;;;;;;-0.54;78.23145;945.2901;;;;
2020/01/07 03:18:12;;;;;;;3.5;2;;;;;;;-0.62;78.53906;945.2957;;;;
2020/01/07 03:20:58;;;;;;;3.7;2.1;;;;;;;-0.79;79.06445;945.4613;;;;
2020/01/07 03:23:02;;;;;;;4.5;2.8;;;;;;;-0.66;78.84375;945.5215;;;;
2020/01/07 03:25:27;;;;;;;3.6;1.9;;;;;;;-0.5;78.15039;945.546;;;;
2020/01/07 03:27:52;;;;;;;2.5;1.7;;;;;;;-0.54;78.24414;945.4969;;;;
2020/01/07 03:30:17;;;;;;;4.4;2.3;;;;;;;-0.47;78.25586;945.5471;;;;
2020/01/07 03:32:43;;;;;;;2.9;1.9;;;;;;;-0.54;78.52246;945.5547;;;;
2020/01/07 03:35:09;;;;;;;3.7;1.8;;;;;;;-0.43;78.33105;945.415;;;;
2020/01/07 03:37:34;;;;;;;3.4;1.7;;;;;;;-0.37;78.27539;945.4647;;;;
2020/01/07 03:40:00;;;;;;;2.9;1.8;;;;;;;-0.27;77.99219;945.4688;;;;
2020/01/07 03:42:24;;;;;;;2.2;1.7;;;;;;;-0.29;78.11133;945.4637;;;;
2020/01/07 03:44:50;;;;;;;3.1;1.9;;;;;;;-0.33;78.18262;945.387;;;;
2020/01/07 03:47:15;;;;;;;10.2;4.3;;;;;;;-0.45;78.40527;945.4241;;;;
2020/01/07 03:49:40;;;;;;;4.8;2.5;;;;;;;-0.52;78.9375;945.4509;;;;
2020/01/07 03:52:05;;;;;;;2.6;1.6;;;;;;;-0.58;79.42773;945.3574;;;;
2020/01/07 03:54:30;;;;;;;2.5;1.7;;;;;;;-0.49;79.03125;945.3959;;;;
2020/01/07 03:56:56;;;;;;;3.7;1.8;;;;;;;-0.47;79.03418;945.4062;;;;
2020/01/07 03:59:21;;;;;;;5.2;2;;;;;;;-0.37;78.51855;945.3461;;;;
2020/01/07 04:02:44;;;;;;;2.5;1.7;;;;;;;-0.49;79.04395;945.267;;;;
2020/01/07 04:05:09;;;;;;;3.5;1.6;;;;;;;-0.5;79.4082;945.2191;;;;
2020/01/07 04:07:34;;;;;;;2.9;1.6;;;;;;;-0.44;79.35156;945.2625;;;;
2020/01/07 04:09:59;;;;;;;3.4;1.5;;;;;;;-0.39;78.85156;945.2835;;;;
2020/01/07 04:12:24;;;;;;;2.9;1.6;;;;;;;-0.27;78.32715;945.3429;;;;
2020/01/07 04:14:50;;;;;;;2.5;1.5;;;;;;;-0.32;78.33984;945.3933;;;;
2020/01/07 04:17:15;;;;;;;2.7;1.6;;;;;;;-0.22;78.19141;945.4367;;;;
2020/01/07 04:19:40;;;;;;;3.6;1.8;;;;;;;-0.17;78.21289;945.423;;;;
2020/01/07 04:22:05;;;;;;;3;1.7;;;;;;;-0.11;77.98828;945.5828;;;;
2020/01/07 04:24:30;;;;;;;3.6;1.9;;;;;;;-0.09;77.74707;945.5293;;;;
2020/01/07 04:26:55;;;;;;;2.9;1.8;;;;;;;-0.1;77.36621;945.5725;;;;
2020/01/07 04:29:20;;;;;;;2.8;1.7;;;;;;;-0.05;77.10938;945.553;;;;
2020/01/07 04:31:46;;;;;;;3.2;1.9;;;;;;;-0.17;77.5332;945.6414;;;;
2020/01/07 04:34:11;;;;;;;3.4;1.8;;;;;;;-0.24;77.53125;945.5908;;;;
2020/01/07 04:36:37;;;;;;;3;1.7;;;;;;;-0.17;77.44434;945.6548;;;;
2020/01/07 04:39:02;;;;;;;4.1;2.1;;;;;;;-0.06;78.5332;945.7562;;;;
2020/01/07 04:41:27;;;;;;;3.2;2.1;;;;;;;0.02;77.5459;945.8451;;;;
2020/01/07 04:43:52;;;;;;;3.7;2.3;;;;;;;-0.1;77.20117;945.9197;;;;
2020/01/07 04:46:17;;;;;;;3.4;2.2;;;;;;;-0.13;76.88086;945.9166;;;;
2020/01/07 04:48:43;;;;;;;4.2;2.2;;;;;;;-0.25;77.00586;945.9069;;;;
2020/01/07 04:51:08;;;;;;;3.6;2.7;;;;;;;-0.4;77.70117;945.9995;;;;
2020/01/07 04:53:33;;;;;;;4.2;2.7;;;;;;;-0.6;78.3877;946.0415;;;;
2020/01/07 04:55:58;;;;;;;5.6;2.9;;;;;;;-0.71;78.82227;946.0078;;;;
2020/01/07 04:58:23;;;;;;;3.6;2.4;;;;;;;-0.64;78.88184;945.9666;;;;
2020/01/07 05:00:48;;;;;;;3.8;2.5;;;;;;;-0.7;79.18164;946.0319;;;;
2020/01/07 05:03:13;;;;;;;7.1;2.6;;;;;;;-0.76;79.72754;946.012;;;;
2020/01/07 05:05:39;;;;;;;5.1;3.1;;;;;;;-0.75;80.17188;945.8951;;;;
2020/01/07 05:08:04;;;;;;;16.3;9;;;;;;;-0.64;80.11621;945.8306;;;;
2020/01/07 05:10:30;;;;;;;12.4;7;;;;;;;-0.69;80.35059;946.0016;;;;
2020/01/07 05:12:54;;;;;;;15.6;8.2;;;;;;;-0.63;80.20703;945.9097;;;;
2020/01/07 05:15:21;;;;;;;12;7.5;;;;;;;-0.58;79.5498;945.9189;;;;
2020/01/07 05:17:46;;;;;;;11.7;6.5;;;;;;;-0.45;79.35156;945.9272;;;;
2020/01/07 05:20:11;;;;;;;7.8;5;;;;;;;-0.38;79.14063;945.9769;;;;
2020/01/07 05:22:36;;;;;;;5.3;3.2;;;;;;;-0.37;79.47754;945.9917;;;;
2020/01/07 05:25:01;;;;;;;4.4;2.7;;;;;;;-0.28;79.29492;946.0123;;;;
2020/01/07 05:27:27;;;;;;;3.7;2.4;;;;;;;0.03;78.50586;945.9285;;;;
2020/01/07 05:30:11;;;;;;;2.7;2.1;;;;;;;0.27;77.22266;945.8594;;;;
2020/01/07 05:34:59;;;;;;;3;1.9;;;;;;;0.58;76.40918;945.9775;;;;
2020/01/07 05:37:08;;;;;;;2.9;2;;;;;;;0.79;76.21387;946.009;;;;
2020/01/07 05:39:33;;;;;;;2.7;1.9;;;;;;;0.96;75.85254;946.1184;;;;
2020/01/07 05:41:58;;;;;;;4.3;2.1;;;;;;;1.02;74.9834;946.1361;;;;
2020/01/07 05:44:23;;;;;;;2.8;1.8;;;;;;;1.1;75.11914;946.1113;;;;
2020/01/07 05:46:48;;;;;;;3.4;1.9;;;;;;;1.19;74.42188;946.2626;;;;
2020/01/07 05:49:13;;;;;;;4.8;2.4;;;;;;;0.8;76.11523;946.1498;;;;
2020/01/07 05:51:38;;;;;;;34.8;31.2;;;;;;;0.65;77.05762;946.2994;;;;
2020/01/07 05:54:04;;;;;;;7.9;4.4;;;;;;;0.74;76.875;946.3622;;;;
2020/01/07 05:56:28;;;;;;;11.2;9.1;;;;;;;0.89;76.52148;946.3147;;;;
2020/01/07 05:58:54;;;;;;;7.5;4.4;;;;;;;0.97;75.81055;946.3787;;;;
2020/01/07 06:01:19;;;;;;;9.2;5.1;;;;;;;1.1;75.8125;946.4911;;;;
2020/01/07 06:03:44;;;;;;;8.8;5.4;;;;;;;1.29;75.4209;946.4439;;;;
2020/01/07 06:06:09;;;;;;;8.8;5.6;;;;;;;1.31;75.12402;946.3126;;;;
2020/01/07 06:08:35;;;;;;;12.2;6.7;;;;;;;1.26;74.75684;946.3304;;;;
2020/01/07 06:11:00;;;;;;;9.9;6.4;;;;;;;1.27;75.32813;946.2619;;;;
2020/01/07 06:13:25;;;;;;;6.8;3.6;;;;;;;1.3;74.93066;946.3095;;;;
2020/01/07 06:15:50;;;;;;;7.1;4.9;;;;;;;1.23;74.7627;946.2609;;;;
2020/01/07 06:18:15;;;;;;;8.3;5.1;;;;;;;1.11;75.33203;946.4662;;;;
2020/01/07 06:20:41;;;;;;;11.5;6.3;;;;;;;1.19;75.45898;946.4217;;;;
2020/01/07 06:23:07;;;;;;;12;7.8;;;;;;;1.26;75.22559;946.4186;;;;
2020/01/07 06:25:46;;;;;;;14.7;8.1;;;;;;;1.17;75.83496;946.4008;;;;
2020/01/07 06:28:12;;;;;;;10.9;4.2;;;;;;;1.21;75.76367;946.3524;;;;
2020/01/07 06:30:37;;;;;;;5.4;3.1;;;;;;;1.15;75.77734;946.345;;;;
2020/01/07 06:33:04;;;;;;;5.3;3.1;;;;;;;1.12;76.24023;946.3934;;;;
2020/01/07 06:35:28;;;;;;;4.4;2.6;;;;;;;1.18;76.30566;946.3989;;;;
2020/01/07 06:37:54;;;;;;;3.2;2;;;;;;;1.34;75.34082;946.4533;;;;
2020/01/07 06:40:19;;;;;;;3.1;2.4;;;;;;;1.35;74.75;946.3911;;;;
2020/01/07 06:42:44;;;;;;;91.5;56.4;;;;;;;1.44;77.99609;946.3752;;;;
2020/01/07 06:45:10;;;;;;;22.8;15.1;;;;;;;1.61;72.3125;946.4028;;;;
2020/01/07 06:47:35;;;;;;;18.5;10.7;;;;;;;1.79;72.45703;946.4368;;;;
2020/01/07 06:50:00;;;;;;;5.9;4.4;;;;;;;1.92;71.65039;946.5154;;;;
2020/01/07 06:52:26;;;;;;;8.7;5.8;;;;;;;1.95;72.07031;946.5928;;;;
2020/01/07 06:54:51;;;;;;;6.9;4.1;;;;;;;1.86;72.87012;946.6478;;;;
2020/01/07 06:57:16;;;;;;;5.8;4.6;;;;;;;1.89;73.3252;946.7874;;;;
2020/01/07 06:59:41;;;;;;;7.9;3.8;;;;;;;1.85;73.5293;946.7864;;;;
2020/01/07 07:02:07;;;;;;;5.8;3.7;;;;;;;1.63;74.21973;946.7773;;;;
2020/01/07 07:04:32;;;;;;;5.9;3.7;;;;;;;1.7;73.99609;946.8328;;;;
2020/01/07 07:06:58;;;;;;;6.2;3.7;;;;;;;1.79;73.40723;946.9676;;;;
2020/01/07 07:09:23;;;;;;;7.7;5.4;;;;;;;1.37;74.8877;946.9917;;;;
2020/01/07 07:11:48;;;;;;;8.2;5.4;;;;;;;1.18;76.03809;947.028;;;;
2020/01/07 07:14:14;;;;;;;7.8;5.1;;;;;;;1.23;76.00293;947.0344;;;;
2020/01/07 07:16:39;;;;;;;10.3;5.7;;;;;;;0.99;76.86523;947.1283;;;;
2020/01/07 07:19:04;;;;;;;8;4.5;;;;;;;0.95;77.29102;947.1936;;;;
2020/01/07 07:21:29;;;;;;;7.7;5.7;;;;;;;1.1;76.58203;947.2491;;;;
2020/01/07 07:23:55;;;;;;;10.8;6.1;;;;;;;1.24;77.06445;947.2609;;;;
2020/01/07 07:26:20;;;;;;;8.9;6;;;;;;;1.31;76.70898;947.4006;;;;
2020/01/07 07:28:45;;;;;;;11.1;6.1;;;;;;;1.39;75.92969;947.4219;;;;
2020/01/07 07:31:10;;;;;;;8.4;5.1;;;;;;;1.34;75.81055;947.3995;;;;
2020/01/07 07:33:35;;;;;;;9.2;5.8;;;;;;;1.34;75.97754;947.3578;;;;
2020/01/07 07:36:00;;;;;;;8.6;5.2;;;;;;;1.36;75.47852;947.4227;;;;
2020/01/07 07:38:25;;;;;;;8.1;5.1;;;;;;;1.49;74.78711;947.3337;;;;
2020/01/07 07:40:51;;;;;;;8.3;5.5;;;;;;;1.66;74.49121;947.4654;;;;
2020/01/07 07:43:16;;;;;;;8.1;5;;;;;;;1.74;73.87891;947.5399;;;;
2020/01/07 07:45:41;;;;;;;7.8;5;;;;;;;1.81;73.25391;947.5844;;;;
2020/01/07 07:48:06;;;;;;;4.9;3.8;;;;;;;1.72;73.32813;947.5545;;;;
2020/01/07 07:50:31;;;;;;;5.8;3.4;;;;;;;1.93;72.7373;947.6469;;;;
2020/01/07 07:52:56;;;;;;;17.4;10.2;;;;;;;2.03;72.6875;947.6661;;;;
2020/01/07 07:55:22;;;;;;;22.1;13.2;;;;;;;2.12;72.72656;947.636;;;;
2020/01/07 07:57:47;;;;;;;9.8;6.2;;;;;;;2.24;72.17578;947.6195;;;;
2020/01/07 08:00:12;;;;;;;12;7.9;;;;;;;2.38;72.49023;947.6755;;;;
2020/01/07 08:05:19;;;;;;;8.4;5.5;;;;;;;2.83;71.58008;947.7528;;;;
2020/01/07 08:07:32;;;;;;;8;5.1;;;;;;;3.07;70.23926;947.8831;;;;
2020/01/07 08:10:06;;;;;;;7.2;4.3;;;;;;;2.95;70.34375;947.8717;;;;
2020/01/07 08:12:34;;;;;;;6.9;3.6;;;;;;;2.89;70.2002;948.0867;;;;
2020/01/07 08:14:43;;;;;;;6;3.8;;;;;;;2.92;72.06445;948.0673;;;;
2020/01/07 08:17:08;;;;;;;9.6;6.1;;;;;;;2.74;71.03809;948.361;;;;
2020/01/07 08:19:34;;;;;;;10.6;7.2;;;;;;;2.43;72.67871;948.3762;;;;
2020/01/07 08:21:59;;;;;;;15.8;11.1;;;;;;;2.35;73.45801;948.4236;;;;
2020/01/07 08:24:24;;;;;;;14.2;9.9;;;;;;;2.36;73.9873;948.4599;;;;
2020/01/07 08:26:49;;;;;;;13;8.4;;;;;;;2.33;74.55469;949.0545;;;;
2020/01/07 08:29:14;;;;;;;13.5;8.6;;;;;;;2.23;75.44238;948.8334;;;;
2020/01/07 08:31:39;;;;;;;13.1;6;;;;;;;2.35;74.66992;948.8146;;;;
2020/01/07 08:34:06;;;;;;;11.4;7.4;;;;;;;2.47;75.27246;948.7303;;;;
2020/01/07 08:36:31;;;;;;;12.5;7;;;;;;;2.5;75.91797;948.722;;;;
2020/01/07 08:38:56;;;;;;;11.9;7.3;;;;;;;2.52;76.25586;948.8265;;;;
2020/01/07 08:41:22;;;;;;;11.3;7.1;;;;;;;2.38;77.08301;948.7035;;;;
2020/01/07 08:43:47;;;;;;;17.3;6.3;;;;;;;2.35;76.56055;948.7584;;;;
2020/01/07 08:46:12;;;;;;;12.1;7.6;;;;;;;2.44;76.19629;948.6484;;;;
2020/01/07 08:48:37;;;;;;;20.5;11.1;;;;;;;2.46;75.94336;948.7078;;;;
2020/01/07 08:51:02;;;;;;;15.8;11.1;;;;;;;2.53;76.04492;948.743;;;;
2020/01/07 08:53:28;;;;;;;13.7;10.1;;;;;;;2.68;76.15039;948.7517;;;;
2020/01/07 08:55:53;;;;;;;16;10.2;;;;;;;2.93;76.23926;948.7335;;;;
2020/01/07 08:58:18;;;;;;;12.9;9.2;;;;;;;3.1;75.91211;948.733;;;;
2020/01/07 09:00:43;;;;;;;12.7;8.2;;;;;;;3.25;75.91602;948.7022;;;;
2020/01/07 09:03:08;;;;;;;10.2;7.8;;;;;;;3.31;76.38867;948.6912;;;;
2020/01/07 09:05:33;;;;;;;11.1;8.7;;;;;;;3.42;76.40723;948.7341;;;;
2020/01/07 09:07:58;;;;;;;10.6;8.8;;;;;;;3.53;76.22363;948.7258;;;;
2020/01/07 09:10:23;;;;;;;11.9;9;;;;;;;3.58;76.33496;948.7014;;;;
2020/01/07 09:12:49;;;;;;;11.9;8.3;;;;;;;3.63;76.49023;948.6803;;;;
2020/01/07 09:15:14;;;;;;;11.7;9.3;;;;;;;3.75;76.34473;948.7645;;;;
2020/01/07 09:17:39;;;;;;;15.4;10.2;;;;;;;3.88;76.5459;948.8318;;;;
2020/01/07 09:20:04;;;;;;;13.8;11.8;;;;;;;3.95;76.51563;948.8515;;;;
2020/01/07 09:22:30;;;;;;;15.5;11.5;;;;;;;3.98;75.60742;948.856;;;;
2020/01/07 09:24:55;;;;;;;14.4;9.7;;;;;;;3.88;75.6709;948.8683;;;;
2020/01/07 09:27:20;;;;;;;13;9.3;;;;;;;3.97;76.05566;948.902;;;;
2020/01/07 09:29:45;;;;;;;11.3;7.4;;;;;;;4;75.26367;948.8019;;;;
2020/01/07 09:32:10;;;;;;;7.7;5.8;;;;;;;3.88;74.24316;948.8359;;;;
2020/01/07 09:34:36;;;;;;;9.2;5.9;;;;;;;3.95;74.20898;948.9033;;;;
2020/01/07 09:37:01;;;;;;;7.7;5.2;;;;;;;4.06;73.66504;948.8942;;;;
2020/01/07 09:39:26;;;;;;;9.5;5.3;;;;;;;4.06;73.42871;948.9389;;;;
2020/01/07 09:41:52;;;;;;;9.5;5.7;;;;;;;4.21;73.29785;948.9021;;;;
2020/01/07 09:44:19;;;;;;;10.8;6.9;;;;;;;4.27;72.79004;948.8058;;;;
2020/01/07 09:46:42;;;;;;;10.9;7.1;;;;;;;4.29;71.87207;948.8132;;;;
2020/01/07 09:49:07;;;;;;;47.4;28.8;;;;;;;4.47;72.66797;948.8544;;;;
2020/01/07 09:51:32;;;;;;;11.3;7.6;;;;;;;4.43;72.22266;948.8047;;;;
2020/01/07 09:54:06;;;;;;;52.2;32.4;;;;;;;4.55;73.20898;948.7386;;;;
2020/01/07 09:56:31;;;;;;;32.1;19.1;;;;;;;4.61;72.86914;948.8409;;;;
2020/01/07 09:59:00;;;;;;;26.6;17.6;;;;;;;4.77;72.21191;948.696;;;;
2020/01/07 10:01:21;;;;;;;18.9;13.2;;;;;;;4.98;71.40137;948.7391;;;;
2020/01/07 10:03:40;;;;;;;14.2;10.5;;;;;;;5.07;70.79492;948.8186;;;;
2020/01/07 10:06:04;;;;;;;51.4;42.6;;;;;;;5.27;70.09668;948.8409;;;;
2020/01/07 10:08:29;;;;;;;27.3;21.4;;;;;;;5.48;70.3916;948.8494;;;;
2020/01/07 10:10:54;;;;;;;16.6;12.7;;;;;;;5.71;70.98145;948.774;;;;
2020/01/07 10:13:19;;;;;;;11.8;8.7;;;;;;;5.74;68.54883;948.8376;;;;
2020/01/07 10:15:44;;;;;;;11.8;8.6;;;;;;;5.85;69.08398;948.8452;;;;
2020/01/07 10:18:10;;;;;;;29.8;24;;;;;;;5.91;66.81152;948.8052;;;;
2020/01/07 10:20:35;;;;;;;8.3;5.7;;;;;;;6.02;67.05566;948.8105;;;;
2020/01/07 10:23:00;;;;;;;8;5.7;;;;;;;6.17;66.71777;948.7449;;;;
2020/01/07 10:25:25;;;;;;;8.4;5.8;;;;;;;6.25;66.27832;948.7172;;;;
2020/01/07 10:27:50;;;;;;;8.1;5.3;;;;;;;6.3;66.77344;948.7466;;;;
2020/01/07 10:30:15;;;;;;;6.9;4.9;;;;;;;6.31;66.60352;948.7535;;;;
2020/01/07 10:32:42;;;;;;;9.9;5.5;;;;;;;6.08;68.20508;948.7615;;;;
2020/01/07 10:35:07;;;;;;;7.3;5.6;;;;;;;5.87;68.63672;948.7813;;;;
2020/01/07 10:37:32;;;;;;;7.6;4.8;;;;;;;5.73;70.51172;948.7781;;;;
2020/01/07 10:39:57;;;;;;;6.1;4.5;;;;;;;5.25;71.71582;948.7555;;;;
2020/01/07 10:42:22;;;;;;;9.5;5.7;;;;;;;5.37;72.78613;948.7089;;;;
2020/01/07 10:44:47;;;;;;;9.2;5.5;;;;;;;5.48;71.57422;948.7253;;;;
2020/01/07 10:47:13;;;;;;;8.4;5.5;;;;;;;5.55;70.10645;948.812;;;;
2020/01/07 10:49:38;;;;;;;7.5;4.2;;;;;;;5.67;70.07129;948.8406;;;;
2020/01/07 10:52:03;;;;;;;5.7;3.8;;;;;;;5.66;69.78906;948.7781;;;;
2020/01/07 10:54:29;;;;;;;7.7;3.9;;;;;;;5.61;69.49902;948.8162;;;;
2020/01/07 10:56:54;;;;;;;11.3;7.3;;;;;;;5.79;69.3916;948.93;;;;
2020/01/07 10:59:19;;;;;;;10.5;6;;;;;;;5.72;70.0127;948.9767;;;;
2020/01/07 11:01:45;;;;;;;11.9;7.5;;;;;;;5.75;69.63379;948.9734;;;;
2020/01/07 11:04:11;;;;;;;12.9;7.7;;;;;;;5.84;70.04297;948.9615;;;;
2020/01/07 11:06:36;;;;;;;10.8;7.4;;;;;;;5.91;70.11133;948.9208;;;;
2020/01/07 11:09:02;;;;;;;9.4;5.4;;;;;;;5.96;69.65527;948.9799;;;;
2020/01/07 11:11:26;;;;;;;7.3;4.7;;;;;;;6;70.13672;948.9929;;;;
2020/01/07 11:13:51;;;;;;;7.1;4.6;;;;;;;5.9;70.62891;948.9384;;;;
2020/01/07 11:16:17;;;;;;;10.6;7.1;;;;;;;5.96;70.80762;948.9087;;;;
2020/01/07 11:18:42;;;;;;;9.6;6.4;;;;;;;6.05;71.29688;948.9089;;;;
2020/01/07 11:21:07;;;;;;;10;6.3;;;;;;;6.11;71.03613;948.8909;;;;
2020/01/07 11:23:32;;;;;;;6.9;4.9;;;;;;;6.21;70.91895;948.8136;;;;
2020/01/07 11:25:57;;;;;;;9.9;6.4;;;;;;;6.27;70.9502;948.7869;;;;
2020/01/07 11:28:22;;;;;;;9.6;6.5;;;;;;;6.28;71.04199;948.8047;;;;
2020/01/07 11:30:48;;;;;;;6;3.5;;;;;;;6.53;70.39453;948.7756;;;;
2020/01/07 11:33:13;;;;;;;5.7;3.5;;;;;;;6.59;70.71973;948.7709;;;;
2020/01/07 11:35:38;;;;;;;4.7;3.3;;;;;;;6.71;70.92188;948.7416;;;;
2020/01/07 11:38:03;;;;;;;4.8;3.3;;;;;;;6.94;70.5293;948.785;;;;
2020/01/07 11:40:28;;;;;;;4.7;2.9;;;;;;;7.09;71.49414;948.7486;;;;
2020/01/07 11:42:53;;;;;;;3.4;2.6;;;;;;;6.78;73.78418;948.8557;;;;
2020/01/07 11:45:18;;;;;;;5.1;3.2;;;;;;;6.66;74.19434;948.8756;;;;
2020/01/07 11:47:44;;;;;;;4.6;3;;;;;;;6.69;74.64063;948.8744;;;;
2020/01/07 11:50:09;;;;;;;4.4;2.9;;;;;;;6.66;74.98633;948.8826;;;;
2020/01/07 11:52:38;;;;;;;4.6;2.9;;;;;;;6.63;75.59082;948.8552;;;;
2020/01/07 11:55:07;;;;;;;3.3;2.5;;;;;;;6.75;75.17188;948.8541;;;;
2020/01/07 11:57:32;;;;;;;4.4;3.1;;;;;;;6.95;74.42383;948.8447;;;;
2020/01/07 11:59:53;;;;;;;6.1;3.6;;;;;;;6.76;75.45605;948.8133;;;;
2020/01/07 12:04:53;;;;;;;5.2;3.3;;;;;;;7.14;74.26758;948.772;;;;
2020/01/07 12:07:05;;;;;;;6.8;3.5;;;;;;;7.29;73.1377;948.8328;;;;
2020/01/07 12:09:30;;;;;;;3.9;2.8;;;;;;;7.36;73.0918;948.9146;;;;
2020/01/07 12:11:55;;;;;;;4.3;2.5;;;;;;;7.58;72.16504;948.8566;;;;
2020/01/07 12:14:20;;;;;;;6.9;2.8;;;;;;;7.6;72.46289;948.8701;;;;
2020/01/07 12:16:45;;;;;;;3.5;2.5;;;;;;;7.75;72.25098;948.8878;;;;
2020/01/07 12:19:10;;;;;;;4.2;2.6;;;;;;;7.76;72.33203;948.8114;;;;
2020/01/07 12:21:35;;;;;;;3.9;2.6;;;;;;;7.65;73.25488;948.9205;;;;
2020/01/07 12:24:00;;;;;;;4.1;2.9;;;;;;;7.75;71.97852;948.9861;;;;
2020/01/07 12:26:26;;;;;;;5.3;3.3;;;;;;;7.82;71.50098;948.985;;;;
2020/01/07 12:28:51;;;;;;;5.2;3.6;;;;;;;7.74;72.09082;948.985;;;;
2020/01/07 12:31:16;;;;;;;4.9;3.2;;;;;;;7.81;72.14648;948.9835;;;;
2020/01/07 12:33:41;;;;;;;4.6;2.9;;;;;;;7.8;72.32813;948.954;;;;
2020/01/07 12:36:06;;;;;;;4.6;2.8;;;;;;;7.63;72.9668;948.8747;;;;
2020/01/07 12:38:31;;;;;;;4.2;2.9;;;;;;;7.17;73.37695;948.8269;;;;
2020/01/07 12:40:56;;;;;;;4.1;3.2;;;;;;;6.96;75.08496;948.8762;;;;
2020/01/07 12:43:21;;;;;;;7;4.1;;;;;;;7.07;74.81934;948.903;;;;
2020/01/07 12:45:47;;;;;;;6.7;3.9;;;;;;;7.14;74.91113;948.8051;;;;
2020/01/07 12:48:12;;;;;;;5.4;3.8;;;;;;;7.27;73.92676;948.8089;;;;
2020/01/07 12:50:37;;;;;;;4.4;3.1;;;;;;;6.78;75.6084;948.8195;;;;
2020/01/07 12:53:02;;;;;;;6.5;3.4;;;;;;;6.8;75.74707;948.7927;;;;
2020/01/07 12:55:27;;;;;;;6.9;4.2;;;;;;;6.83;75.71777;948.757;;;;
2020/01/07 12:57:52;;;;;;;4.8;3.4;;;;;;;6.82;75.99805;948.7785;;;;
2020/01/07 13:00:17;;;;;;;5;3;;;;;;;6.79;76.15137;948.8237;;;;
2020/01/07 13:02:43;;;;;;;5.8;3.9;;;;;;;6.84;76.33105;948.8295;;;;
2020/01/07 13:05:08;;;;;;;4.9;3.1;;;;;;;7.02;75.50293;948.8668;;;;
2020/01/07 13:07:33;;;;;;;4.2;2.5;;;;;;;6.85;75.39258;948.7562;;;;
2020/01/07 13:09:58;;;;;;;4.6;2.5;;;;;;;6.69;76.02051;948.83;;;;
2020/01/07 13:12:23;;;;;;;3.7;2.3;;;;;;;6.63;77.32227;948.8283;;;;
2020/01/07 13:14:48;;;;;;;3.8;2.2;;;;;;;6.84;76.61426;948.7873;;;;
2020/01/07 13:17:13;;;;;;;3.5;2.2;;;;;;;6.87;76.09766;948.8433;;;;
2020/01/07 13:19:39;;;;;;;3.1;2.2;;;;;;;6.94;75.64648;948.8549;;;;
2020/01/07 13:22:04;;;;;;;3.5;2.3;;;;;;;7.19;75.03418;948.808;;;;
2020/01/07 13:24:29;;;;;;;4;3;;;;;;;7.35;74.5166;948.8159;;;;
2020/01/07 13:26:55;;;;;;;9.3;6.1;;;;;;;7.56;73.80664;948.8133;;;;
2020/01/07 13:29:20;;;;;;;10.7;7.5;;;;;;;7.6;73.37012;948.8438;;;;
2020/01/07 13:31:45;;;;;;;6.1;4.6;;;;;;;7.68;73.1123;948.882;;;;
2020/01/07 13:34:10;;;;;;;3.6;2.5;;;;;;;7.72;73.02734;948.8446;;;;
2020/01/07 13:36:35;;;;;;;3.3;2.3;;;;;;;7.79;72.8125;948.9353;;;;
2020/01/07 13:39:00;;;;;;;4.5;2.4;;;;;;;7.91;72.21973;948.9598;;;;
2020/01/07 13:41:26;;;;;;;3;2.5;;;;;;;7.94;72.40723;948.9872;;;;
2020/01/07 13:43:51;;;;;;;4.2;2.9;;;;;;;7.74;73.39453;949.0549;;;;
2020/01/07 13:46:24;;;;;;;4.6;3.2;;;;;;;7.75;73.30566;949.0831;;;;
2020/01/07 13:48:41;;;;;;;7.7;5.6;;;;;;;7.8;73.17871;949.0514;;;;
2020/01/07 13:51:06;;;;;;;6.3;4;;;;;;;7.67;73.16699;949.0481;;;;
2020/01/07 13:53:32;;;;;;;10.2;6.3;;;;;;;7.68;72.77148;949.0463;;;;
2020/01/07 13:55:57;;;;;;;8.5;5.6;;;;;;;7.49;73.03418;949.022;;;;
2020/01/07 13:58:22;;;;;;;17.5;12.5;;;;;;;7.59;72.51953;949.0236;;;;
2020/01/07 14:00:48;;;;;;;25.4;21.5;;;;;;;7.63;72.42188;949.046;;;;
2020/01/07 14:03:13;;;;;;;13.5;9.5;;;;;;;7.72;71.99609;949.0898;;;;
2020/01/07 14:05:38;;;;;;;11.1;7.5;;;;;;;7.78;72.69727;949.1164;;;;
2020/01/07 14:08:03;;;;;;;11.4;7.7;;;;;;;7.69;72.62598;949.1472;;;;
2020/01/07 14:10:28;;;;;;;40.4;29.3;;;;;;;7.59;72.93945;949.2266;;;;
2020/01/07 14:12:53;;;;;;;52.3;39.6;;;;;;;7.67;72.92871;949.275;;;;
2020/01/07 14:15:19;;;;;;;20.6;15.6;;;;;;;7.77;72.28906;949.3217;;;;
2020/01/07 14:17:49;;;;;;;17.3;12.1;;;;;;;7.87;71.58789;949.308;;;;
2020/01/07 14:23:35;;;;;;;5.1;3.3;;;;;;;7.55;72.27441;949.3516;;;;
2020/01/07 14:25:39;;;;;;;4.7;2.6;;;;;;;7.09;73.98438;949.3154;;;;
2020/01/07 14:27:59;;;;;;;2.8;2.5;;;;;;;7.16;74.17969;949.3359;;;;